Madawaska, ME

9:32 AM EST on February 07, 2016 (GMT -0500)
W1AYX | | Change Station
CLOSE
Current Station
Personal Weather Station
Location: Madawaska, ME
Elevation: 545 ft
Nearby Weather Stations

Elev 545 ft 47.35 °N, 68.28 °W | Updated 17 seconds ago

Partly Cloudy
Partly Cloudy
9.9 °F
Feels Like -2 °F
N
8.3
Wind Variable Wind from NW
Gusts 12.3 mph

Today
High -- | Low -- °F
--% Chance of Precip.
Yesterday
High -- | Low -- °F
Precip. -- in
Pressure 30.02 in
Visibility 8.0 miles
Clouds Few 2600 ft
Windchill -2 °F
Dew Point -12 °F
Humidity 36%
Rainfall 0.00 in
Snow Depth Not available.
6:51 AM 4:43 PM
Waning Crescent, 1% visible
SPECI KFVE 071424Z AUTO 32017G21KT 8SM FEW026 M13/M19 A3002 RMK AO2 SNE1358 P0000 T11281189
Pressure 30.02 in
Visibility 8.0 miles
Clouds Few 2600 ft
Windchill -2 °F
Dew Point -12 °F
Humidity 36%
Rainfall 0.00 in
Snow Depth Not available.
6:51 AM 4:43 PM
Waning Crescent, 1% visible
SPECI KFVE 071424Z AUTO 32017G21KT 8SM FEW026 M13/M19 A3002 RMK AO2 SNE1358 P0000 T11281189

10-Day Weather Forecast

Almanac

Astronomy

Feb. 07, 2016 Rise Set
Actual Time
Civil Twilight
Nautical Twilight
Astronomical Twilight
Moon
Length of Visible Light
Length of Day
Tomorrow will be .
, % of the Moon is Illuminated

Today's Extremes

State Highs State Lows

Community

WunderPhotos

Upload Photos

1,891,204 photos uploaded!

WunderBlog® & News

Nearby

Air Quality

  Air Quality AQ Index Pollutant
Not available.

Snow Depth

Station Depth Elevation

Earthquake Activity

City Distance Mag. Time & Date
Minimum magnitude displayed is 2.5.

Coastal Water Temperatures

Place Temperature

Stations

Nearby Weather Stations

Station Location Temp. Windchill Dew Point Humidity Wind Precip. Elev Updated Type
                   

Watches & Warnings

There are currently no watches in effect.